sensor_id;sensor_type;location;lat;lon;timestamp;pressure;altitude;pressure_sealevel;temperature;humidity
8334;BME280;4204;43.004;23.052;2023-01-16T16:21:13;92787.81;;;6.60;100.00
8334;BME280;4204;43.004;23.052;2023-01-16T16:23:41;92774.19;;;6.49;100.00
8334;BME280;4204;43.004;23.052;2023-01-16T16:26:12;92788.72;;;6.90;100.00
8334;BME280;4204;43.004;23.052;2023-01-16T16:28:42;92780.78;;;6.98;100.00
8334;BME280;4204;43.004;23.052;2023-01-16T16:31:13;92777.88;;;6.74;100.00
8334;BME280;4204;43.004;23.052;2023-01-16T16:33:42;92782.16;;;6.96;100.00
8334;BME280;4204;43.004;23.052;2023-01-16T16:36:21;92778.44;;;7.05;100.00
8334;BME280;4204;43.004;23.052;2023-01-16T16:38:50;92769.75;;;6.96;100.00
8334;BME280;4204;43.004;23.052;2023-01-16T16:41:44;92776.53;;;7.06;100.00
8334;BME280;4204;43.004;23.052;2023-01-16T16:44:35;92787.31;;;7.01;100.00
8334;BME280;4204;43.004;23.052;2023-01-16T16:47:14;92789.75;;;7.14;100.00
8334;BME280;4204;43.004;23.052;2023-01-16T16:49:44;92797.97;;;7.21;100.00
8334;BME280;4204;43.004;23.052;2023-01-16T16:55:28;92792.31;;;6.85;100.00
8334;BME280;4204;43.004;23.052;2023-01-16T16:57:57;92779.44;;;6.67;100.00
8334;BME280;4204;43.004;23.052;2023-01-16T17:00:27;92786.28;;;6.68;100.00
8334;BME280;4204;43.004;23.052;2023-01-16T17:03:03;92786.75;;;6.52;100.00
8334;BME280;4204;43.004;23.052;2023-01-16T17:05:32;92770.28;;;6.56;100.00
8334;BME280;4204;43.004;23.052;2023-01-16T17:08:01;92773.19;;;6.88;100.00
8334;BME280;4204;43.004;23.052;2023-01-16T17:10:30;92759.84;;;6.68;100.00
8334;BME280;4204;43.004;23.052;2023-01-16T17:12:58;92771.66;;;6.70;100.00
8334;BME280;4204;43.004;23.052;2023-01-16T17:15:26;92770.59;;;6.54;100.00
8334;BME280;4204;43.004;23.052;2023-01-16T17:17:54;92759.09;;;6.59;100.00
8334;BME280;4204;43.004;23.052;2023-01-16T17:20:25;92756.47;;;6.41;100.00
8334;BME280;4204;43.004;23.052;2023-01-16T17:22:54;92757.88;;;6.22;100.00
8334;BME280;4204;43.004;23.052;2023-01-16T17:25:24;92755.69;;;6.49;100.00
8334;BME280;4204;43.004;23.052;2023-01-16T17:27:54;92743.22;;;6.76;100.00
8334;BME280;4204;43.004;23.052;2023-01-16T17:30:23;92747.38;;;6.85;100.00
8334;BME280;4204;43.004;23.052;2023-01-16T17:32:55;92735.50;;;7.00;100.00
8334;BME280;4204;43.004;23.052;2023-01-16T17:35:25;92745.63;;;6.98;100.00
8334;BME280;4204;43.004;23.052;2023-01-16T17:37:54;92748.81;;;6.83;100.00
8334;BME280;4204;43.004;23.052;2023-01-16T17:40:27;92743.53;;;6.74;100.00
8334;BME280;4204;43.004;23.052;2023-01-16T17:42:55;92748.34;;;6.72;100.00
8334;BME280;4204;43.004;23.052;2023-01-16T17:45:55;92743.88;;;6.56;100.00
8334;BME280;4204;43.004;23.052;2023-01-16T17:48:27;92740.13;;;6.57;100.00
8334;BME280;4204;43.004;23.052;2023-01-16T17:50:56;92741.38;;;6.50;100.00
8334;BME280;4204;43.004;23.052;2023-01-16T17:53:26;92739.38;;;6.47;100.00
8334;BME280;4204;43.004;23.052;2023-01-16T17:55:58;92732.06;;;6.44;100.00
8334;BME280;4204;43.004;23.052;2023-01-16T17:58:28;92710.50;;;6.34;100.00
8334;BME280;4204;43.004;23.052;2023-01-16T18:01:05;92734.84;;;6.57;100.00
8334;BME280;4204;43.004;23.052;2023-01-16T18:03:34;92741.00;;;6.86;100.00
8334;BME280;4204;43.004;23.052;2023-01-16T18:06:04;92736.34;;;6.75;100.00
8334;BME280;4204;43.004;23.052;2023-01-16T18:08:33;92739.19;;;6.70;100.00
8334;BME280;4204;43.004;23.052;2023-01-16T18:11:03;92744.63;;;6.65;100.00
8334;BME280;4204;43.004;23.052;2023-01-16T18:13:45;92736.88;;;6.60;100.00
8334;BME280;4204;43.004;23.052;2023-01-16T18:16:31;92744.75;;;6.77;100.00
8334;BME280;4204;43.004;23.052;2023-01-16T18:19:28;92733.44;;;6.76;100.00
8334;BME280;4204;43.004;23.052;2023-01-16T18:21:56;92741.06;;;6.52;100.00
8334;BME280;4204;43.004;23.052;2023-01-16T18:24:30;92743.38;;;6.71;100.00
8334;BME280;4204;43.004;23.052;2023-01-16T18:27:02;92739.78;;;6.67;100.00
8334;BME280;4204;43.004;23.052;2023-01-16T18:29:30;92746.78;;;6.71;100.00
8334;BME280;4204;43.004;23.052;2023-01-16T18:31:59;92748.75;;;6.91;100.00
8334;BME280;4204;43.004;23.052;2023-01-16T18:34:44;92752.19;;;6.92;100.00
8334;BME280;4204;43.004;23.052;2023-01-16T18:37:13;92759.03;;;6.93;100.00
8334;BME280;4204;43.004;23.052;2023-01-16T18:39:41;92755.63;;;6.84;100.00
8334;BME280;4204;43.004;23.052;2023-01-16T18:42:27;92760.59;;;6.77;100.00
8334;BME280;4204;43.004;23.052;2023-01-16T18:45:14;92762.03;;;6.74;100.00
8334;BME280;4204;43.004;23.052;2023-01-16T18:59:51;92736.28;;;6.37;100.00
8334;BME280;4204;43.004;23.052;2023-01-16T19:02:44;92732.72;;;6.24;100.00
8334;BME280;4204;43.004;23.052;2023-01-16T19:05:13;92725.09;;;6.23;100.00
8334;BME280;4204;43.004;23.052;2023-01-16T19:07:43;92736.13;;;6.33;100.00
8334;BME280;4204;43.004;23.052;2023-01-16T19:10:15;92734.59;;;6.24;100.00
8334;BME280;4204;43.004;23.052;2023-01-16T19:12:45;92746.06;;;6.11;100.00
8334;BME280;4204;43.004;23.052;2023-01-16T19:15:17;92744.69;;;6.30;100.00
8334;BME280;4204;43.004;23.052;2023-01-16T19:17:48;92733.50;;;6.16;100.00
8334;BME280;4204;43.004;23.052;2023-01-16T19:20:17;92728.53;;;6.06;100.00
8334;BME280;4204;43.004;23.052;2023-01-16T19:22:46;92735.69;;;5.97;100.00
8334;BME280;4204;43.004;23.052;2023-01-16T19:25:18;92737.22;;;5.98;100.00
8334;BME280;4204;43.004;23.052;2023-01-16T19:27:49;92738.94;;;6.20;100.00
8334;BME280;4204;43.004;23.052;2023-01-16T19:46:05;92735.97;;;6.38;100.00
8334;BME280;4204;43.004;23.052;2023-01-16T19:51:49;92721.09;;;6.08;100.00
8334;BME280;4204;43.004;23.052;2023-01-16T19:54:17;92711.16;;;5.97;100.00
8334;BME280;4204;43.004;23.052;2023-01-16T19:56:45;92707.44;;;5.98;100.00
8334;BME280;4204;43.004;23.052;2023-01-16T19:59:13;92717.50;;;6.04;100.00
8334;BME280;4204;43.004;23.052;2023-01-16T20:01:54;92697.94;;;6.14;100.00
